Other Surface Observations
Issued by NWS Great Falls, MT

Home | Current Version | Previous Version | Text Only | Print | Product List | Glossary On
Versions: 1 2 3 4 5 6 7 8 9 10 11 12 13 14 15 16 17 18 19 20 21 22 23 24 25 26 27 28 29 30 31 32 33 34 35 36 37 38 39 40 41 42 43 44 45 46 47 48 49 50
679
SXUS55 KTFX 221544
OSOTFX
AREA AWOS OBSERVATIONS
NATIONAL WEATHER SERVICE GREAT FALLS MT
0844 AM MST SUN JAN 22 2017

METAR KPWD 221545Z AUTO 28010KT 5SM M02/M03 A2976 RMK PLENTYWOOD
METAR KPO1 221545Z AUTO 26007KT 8SM M03/M04 A2982 RMK POPLAR
METAR K1S3 221545Z AUTO 25003KT 8SM M07/M08 A2985 RMK FORSYTH
METAR KS71 221545Z AUTO 26006KT 3SM M02/M03 A2986 RMK CHINOOK
METAR K79S 221545Z AUTO 4SM M03/M04 A2987 RMK FORT BENTON
METAR K38S 221545Z AUTO 13004KT 10SM M06/M09 A2982 RMK DEER LODGE
METAR K3U3 221545Z AUTO 16010KT 10SM M06/M11 A2980 RMK ANACONDA
METAR K6S5 221545Z AUTO 00000KT M1/4SM M08/M09 A2979 RMK HAMILTON
METAR K88M 221545Z AUTO 00000KT 8SM M03/M04 A2981 RMK EUREKA



USA.gov is the U.S. government's official web portal to all federal, state and local government web resources and services.